sensor_id;sensor_type;location;lat;lon;timestamp;pressure;altitude;pressure_sealevel;temperature
72278;BMP280;61204;49.980;8.358;2023-09-19T00:00:46;99945.03;;;16.51
72278;BMP280;61204;49.980;8.358;2023-09-19T00:03:15;99945.66;;;16.50
72278;BMP280;61204;49.980;8.358;2023-09-19T00:05:41;99948.91;;;16.44
72278;BMP280;61204;49.980;8.358;2023-09-19T00:08:13;99955.25;;;16.47
72278;BMP280;61204;49.980;8.358;2023-09-19T00:10:39;99950.94;;;16.42
72278;BMP280;61204;49.980;8.358;2023-09-19T00:13:06;99951.50;;;16.38
72278;BMP280;61204;49.980;8.358;2023-09-19T00:15:47;99951.28;;;16.32
72278;BMP280;61204;49.980;8.358;2023-09-19T00:18:14;99950.31;;;16.25
72278;BMP280;61204;49.980;8.358;2023-09-19T00:20:41;99957.84;;;16.23
72278;BMP280;61204;49.980;8.358;2023-09-19T00:23:07;99952.88;;;16.19
72278;BMP280;61204;49.980;8.358;2023-09-19T00:25:36;99949.88;;;16.13
72278;BMP280;61204;49.980;8.358;2023-09-19T00:28:04;99958.28;;;16.15
72278;BMP280;61204;49.980;8.358;2023-09-19T00:30:31;99952.44;;;16.07
72278;BMP280;61204;49.980;8.358;2023-09-19T00:32:58;99955.75;;;16.03
72278;BMP280;61204;49.980;8.358;2023-09-19T00:35:23;99965.78;;;15.95
72278;BMP280;61204;49.980;8.358;2023-09-19T00:37:49;99958.66;;;15.90
72278;BMP280;61204;49.980;8.358;2023-09-19T00:40:18;99959.88;;;15.85
72278;BMP280;61204;49.980;8.358;2023-09-19T00:42:45;99961.00;;;15.78
72278;BMP280;61204;49.980;8.358;2023-09-19T00:45:13;99960.66;;;15.69
72278;BMP280;61204;49.980;8.358;2023-09-19T00:47:44;99959.94;;;15.69
72278;BMP280;61204;49.980;8.358;2023-09-19T00:50:15;99954.72;;;15.95
72278;BMP280;61204;49.980;8.358;2023-09-19T00:52:46;99962.94;;;15.93
72278;BMP280;61204;49.980;8.358;2023-09-19T00:55:15;99964.19;;;15.90
72278;BMP280;61204;49.980;8.358;2023-09-19T00:57:45;99965.72;;;15.93
72278;BMP280;61204;49.980;8.358;2023-09-19T01:00:12;99968.13;;;16.02
72278;BMP280;61204;49.980;8.358;2023-09-19T01:02:44;99975.69;;;16.00
72278;BMP280;61204;49.980;8.358;2023-09-19T01:05:12;99979.84;;;16.01
72278;BMP280;61204;49.980;8.358;2023-09-19T01:07:38;99988.53;;;15.93
72278;BMP280;61204;49.980;8.358;2023-09-19T01:10:12;99998.78;;;15.91
72278;BMP280;61204;49.980;8.358;2023-09-19T01:13:09;99994.78;;;15.94
72278;BMP280;61204;49.980;8.358;2023-09-19T01:16:07;99994.06;;;15.93
72278;BMP280;61204;49.980;8.358;2023-09-19T01:22:02;100011.19;;;15.90
72278;BMP280;61204;49.980;8.358;2023-09-19T01:28:53;100019.66;;;15.94
72278;BMP280;61204;49.980;8.358;2023-09-19T01:31:33;100032.06;;;15.93
72278;BMP280;61204;49.980;8.358;2023-09-19T01:34:03;100029.03;;;15.87
72278;BMP280;61204;49.980;8.358;2023-09-19T01:36:33;100027.38;;;15.80
72278;BMP280;61204;49.980;8.358;2023-09-19T01:39:05;100035.50;;;15.75
72278;BMP280;61204;49.980;8.358;2023-09-19T01:41:52;100031.25;;;15.72
72278;BMP280;61204;49.980;8.358;2023-09-19T01:44:38;100038.66;;;15.68
72278;BMP280;61204;49.980;8.358;2023-09-19T01:53:14;100037.50;;;15.91
72278;BMP280;61204;49.980;8.358;2023-09-19T01:55:48;100032.94;;;15.97
72278;BMP280;61204;49.980;8.358;2023-09-19T01:58:51;100049.44;;;16.13
72278;BMP280;61204;49.980;8.358;2023-09-19T02:01:24;100053.44;;;16.28
72278;BMP280;61204;49.980;8.358;2023-09-19T02:03:53;100054.41;;;16.52
72278;BMP280;61204;49.980;8.358;2023-09-19T02:06:21;100061.75;;;16.66
72278;BMP280;61204;49.980;8.358;2023-09-19T02:08:47;100068.59;;;16.62
72278;BMP280;61204;49.980;8.358;2023-09-19T02:11:15;100078.34;;;16.63
72278;BMP280;61204;49.980;8.358;2023-09-19T02:13:41;100075.06;;;16.69
72278;BMP280;61204;49.980;8.358;2023-09-19T02:16:09;100081.81;;;16.64
72278;BMP280;61204;49.980;8.358;2023-09-19T02:18:36;100084.19;;;16.54
72278;BMP280;61204;49.980;8.358;2023-09-19T02:21:02;100082.88;;;16.37
72278;BMP280;61204;49.980;8.358;2023-09-19T02:23:29;100090.91;;;16.49
72278;BMP280;61204;49.980;8.358;2023-09-19T02:25:56;100093.41;;;16.60
72278;BMP280;61204;49.980;8.358;2023-09-19T02:28:31;100107.91;;;16.59
72278;BMP280;61204;49.980;8.358;2023-09-19T02:30:57;100096.19;;;16.60
72278;BMP280;61204;49.980;8.358;2023-09-19T02:33:24;100101.44;;;16.52
72278;BMP280;61204;49.980;8.358;2023-09-19T02:35:49;100109.00;;;16.52
72278;BMP280;61204;49.980;8.358;2023-09-19T02:38:20;100109.63;;;16.50
72278;BMP280;61204;49.980;8.358;2023-09-19T02:40:50;100107.44;;;16.47
72278;BMP280;61204;49.980;8.358;2023-09-19T02:43:18;100098.19;;;16.40
72278;BMP280;61204;49.980;8.358;2023-09-19T02:45:47;100110.75;;;16.43
72278;BMP280;61204;49.980;8.358;2023-09-19T02:48:18;100117.38;;;16.36
72278;BMP280;61204;49.980;8.358;2023-09-19T02:50:44;100103.25;;;16.28
72278;BMP280;61204;49.980;8.358;2023-09-19T02:53:11;100107.19;;;16.23
72278;BMP280;61204;49.980;8.358;2023-09-19T02:55:42;100110.53;;;16.19
72278;BMP280;61204;49.980;8.358;2023-09-19T02:58:08;100115.31;;;16.01
72278;BMP280;61204;49.980;8.358;2023-09-19T03:00:36;100109.31;;;15.89
72278;BMP280;61204;49.980;8.358;2023-09-19T03:03:02;100105.88;;;15.72
72278;BMP280;61204;49.980;8.358;2023-09-19T03:05:29;100111.38;;;15.55
72278;BMP280;61204;49.980;8.358;2023-09-19T03:07:56;100105.59;;;15.33
72278;BMP280;61204;49.980;8.358;2023-09-19T03:10:25;100096.97;;;15.09
72278;BMP280;61204;49.980;8.358;2023-09-19T03:12:53;100102.28;;;14.89
72278;BMP280;61204;49.980;8.358;2023-09-19T03:15:19;100107.38;;;14.79
72278;BMP280;61204;49.980;8.358;2023-09-19T03:17:47;100114.63;;;14.72
72278;BMP280;61204;49.980;8.358;2023-09-19T03:20:14;100116.53;;;14.83
72278;BMP280;61204;49.980;8.358;2023-09-19T03:22:44;100112.88;;;14.79
72278;BMP280;61204;49.980;8.358;2023-09-19T03:25:11;100114.03;;;14.90
72278;BMP280;61204;49.980;8.358;2023-09-19T03:27:39;100112.34;;;14.82
72278;BMP280;61204;49.980;8.358;2023-09-19T03:30:07;100114.38;;;14.82
72278;BMP280;61204;49.980;8.358;2023-09-19T03:32:45;100119.81;;;14.80
72278;BMP280;61204;49.980;8.358;2023-09-19T03:35:15;100118.28;;;14.77
72278;BMP280;61204;49.980;8.358;2023-09-19T03:37:45;100117.72;;;14.65
72278;BMP280;61204;49.980;8.358;2023-09-19T03:40:11;100122.34;;;14.60
72278;BMP280;61204;49.980;8.358;2023-09-19T03:42:40;100118.41;;;14.49
72278;BMP280;61204;49.980;8.358;2023-09-19T03:45:08;100118.28;;;14.47
72278;BMP280;61204;49.980;8.358;2023-09-19T03:47:38;100113.03;;;14.38
72278;BMP280;61204;49.980;8.358;2023-09-19T03:50:05;100114.53;;;14.41
72278;BMP280;61204;49.980;8.358;2023-09-19T03:52:40;100120.03;;;14.41
72278;BMP280;61204;49.980;8.358;2023-09-19T03:55:06;100117.00;;;14.35
72278;BMP280;61204;49.980;8.358;2023-09-19T03:57:32;100114.78;;;14.31
72278;BMP280;61204;49.980;8.358;2023-09-19T03:59:58;100129.72;;;14.26
72278;BMP280;61204;49.980;8.358;2023-09-19T04:02:23;100131.44;;;14.33
72278;BMP280;61204;49.980;8.358;2023-09-19T04:04:50;100136.22;;;14.46
72278;BMP280;61204;49.980;8.358;2023-09-19T04:07:17;100137.53;;;14.45
72278;BMP280;61204;49.980;8.358;2023-09-19T04:09:47;100135.06;;;14.51
72278;BMP280;61204;49.980;8.358;2023-09-19T04:12:14;100141.88;;;14.64
72278;BMP280;61204;49.980;8.358;2023-09-19T04:14:42;100151.50;;;14.79
72278;BMP280;61204;49.980;8.358;2023-09-19T04:17:08;100145.88;;;14.77
72278;BMP280;61204;49.980;8.358;2023-09-19T04:19:33;100151.06;;;14.84
72278;BMP280;61204;49.980;8.358;2023-09-19T04:21:59;100156.88;;;14.91
72278;BMP280;61204;49.980;8.358;2023-09-19T04:24:24;100137.22;;;14.98
72278;BMP280;61204;49.980;8.358;2023-09-19T04:26:50;100152.16;;;14.93
72278;BMP280;61204;49.980;8.358;2023-09-19T04:29:15;100150.53;;;14.88
72278;BMP280;61204;49.980;8.358;2023-09-19T04:31:43;100159.97;;;14.83
72278;BMP280;61204;49.980;8.358;2023-09-19T04:34:10;100152.03;;;14.75
72278;BMP280;61204;49.980;8.358;2023-09-19T04:36:39;100159.75;;;14.63
72278;BMP280;61204;49.980;8.358;2023-09-19T04:39:05;100146.56;;;14.62
72278;BMP280;61204;49.980;8.358;2023-09-19T04:41:30;100150.53;;;14.58
72278;BMP280;61204;49.980;8.358;2023-09-19T04:43:56;100153.84;;;14.55
72278;BMP280;61204;49.980;8.358;2023-09-19T04:46:21;100152.94;;;14.50
72278;BMP280;61204;49.980;8.358;2023-09-19T04:48:47;100161.22;;;14.50
72278;BMP280;61204;49.980;8.358;2023-09-19T04:51:13;100152.53;;;14.42
72278;BMP280;61204;49.980;8.358;2023-09-19T04:53:40;100154.41;;;14.38
72278;BMP280;61204;49.980;8.358;2023-09-19T04:56:06;100165.25;;;14.34
72278;BMP280;61204;49.980;8.358;2023-09-19T04:58:33;100174.03;;;14.30
72278;BMP280;61204;49.980;8.358;2023-09-19T05:00:59;100169.03;;;14.26
72278;BMP280;61204;49.980;8.358;2023-09-19T05:03:24;100182.22;;;14.28
72278;BMP280;61204;49.980;8.358;2023-09-19T05:05:50;100178.22;;;14.31
72278;BMP280;61204;49.980;8.358;2023-09-19T05:08:16;100185.66;;;14.28
72278;BMP280;61204;49.980;8.358;2023-09-19T05:10:41;100188.09;;;14.36
72278;BMP280;61204;49.980;8.358;2023-09-19T05:13:07;100190.84;;;14.36
72278;BMP280;61204;49.980;8.358;2023-09-19T05:15:33;100197.81;;;14.37
72278;BMP280;61204;49.980;8.358;2023-09-19T05:18:00;100197.50;;;14.45
72278;BMP280;61204;49.980;8.358;2023-09-19T05:20:26;100195.66;;;14.49
72278;BMP280;61204;49.980;8.358;2023-09-19T05:23:00;100193.41;;;14.46
72278;BMP280;61204;49.980;8.358;2023-09-19T05:25:33;100192.06;;;14.47
72278;BMP280;61204;49.980;8.358;2023-09-19T05:28:02;100209.13;;;14.43
72278;BMP280;61204;49.980;8.358;2023-09-19T05:30:29;100215.28;;;14.42
72278;BMP280;61204;49.980;8.358;2023-09-19T05:32:55;100213.63;;;14.50
72278;BMP280;61204;49.980;8.358;2023-09-19T05:35:21;100219.19;;;14.66
72278;BMP280;61204;49.980;8.358;2023-09-19T05:37:50;100211.81;;;14.71
72278;BMP280;61204;49.980;8.358;2023-09-19T05:40:17;100221.75;;;14.76
72278;BMP280;61204;49.980;8.358;2023-09-19T05:42:44;100224.31;;;14.72
72278;BMP280;61204;49.980;8.358;2023-09-19T05:45:12;100220.81;;;14.71
72278;BMP280;61204;49.980;8.358;2023-09-19T05:47:43;100223.16;;;14.77
72278;BMP280;61204;49.980;8.358;2023-09-19T05:50:12;100224.97;;;14.86
72278;BMP280;61204;49.980;8.358;2023-09-19T05:52:38;100230.69;;;14.90
72278;BMP280;61204;49.980;8.358;2023-09-19T05:55:04;100238.84;;;14.88
72278;BMP280;61204;49.980;8.358;2023-09-19T05:57:32;100239.78;;;14.93
72278;BMP280;61204;49.980;8.358;2023-09-19T06:00:00;100249.06;;;14.99
72278;BMP280;61204;49.980;8.358;2023-09-19T06:02:27;100246.66;;;15.07
72278;BMP280;61204;49.980;8.358;2023-09-19T06:04:55;100259.25;;;15.10
72278;BMP280;61204;49.980;8.358;2023-09-19T06:07:24;100254.06;;;15.19
72278;BMP280;61204;49.980;8.358;2023-09-19T06:09:52;100253.66;;;15.24
72278;BMP280;61204;49.980;8.358;2023-09-19T06:12:23;100260.28;;;15.33
72278;BMP280;61204;49.980;8.358;2023-09-19T06:14:49;100247.88;;;15.34
72278;BMP280;61204;49.980;8.358;2023-09-19T06:17:14;100253.75;;;15.42
72278;BMP280;61204;49.980;8.358;2023-09-19T06:19:42;100260.63;;;15.41
72278;BMP280;61204;49.980;8.358;2023-09-19T06:22:15;100257.69;;;15.37
72278;BMP280;61204;49.980;8.358;2023-09-19T06:24:44;100271.50;;;15.37
72278;BMP280;61204;49.980;8.358;2023-09-19T06:27:12;100272.56;;;15.45
72278;BMP280;61204;49.980;8.358;2023-09-19T06:29:38;100283.63;;;15.61
72278;BMP280;61204;49.980;8.358;2023-09-19T06:32:08;100288.72;;;15.83
72278;BMP280;61204;49.980;8.358;2023-09-19T06:34:34;100297.63;;;15.97
72278;BMP280;61204;49.980;8.358;2023-09-19T06:36:59;100305.47;;;16.02
72278;BMP280;61204;49.980;8.358;2023-09-19T06:39:25;100303.59;;;15.91
72278;BMP280;61204;49.980;8.358;2023-09-19T06:41:51;100298.16;;;16.09
72278;BMP280;61204;49.980;8.358;2023-09-19T06:44:20;100311.13;;;16.04
72278;BMP280;61204;49.980;8.358;2023-09-19T06:46:50;100313.22;;;16.06
72278;BMP280;61204;49.980;8.358;2023-09-19T06:49:19;100310.47;;;16.06
72278;BMP280;61204;49.980;8.358;2023-09-19T06:51:47;100315.78;;;16.18
72278;BMP280;61204;49.980;8.358;2023-09-19T06:54:12;100317.97;;;16.19
72278;BMP280;61204;49.980;8.358;2023-09-19T06:56:38;100325.25;;;16.28
72278;BMP280;61204;49.980;8.358;2023-09-19T06:59:03;100329.97;;;16.42
72278;BMP280;61204;49.980;8.358;2023-09-19T07:01:31;100339.94;;;16.49
72278;BMP280;61204;49.980;8.358;2023-09-19T07:03:57;100342.03;;;16.66
72278;BMP280;61204;49.980;8.358;2023-09-19T07:06:22;100344.09;;;16.66
72278;BMP280;61204;49.980;8.358;2023-09-19T07:08:49;100354.44;;;16.65
72278;BMP280;61204;49.980;8.358;2023-09-19T07:11:15;100358.63;;;16.66
72278;BMP280;61204;49.980;8.358;2023-09-19T07:13:41;100360.75;;;16.83
72278;BMP280;61204;49.980;8.358;2023-09-19T07:16:06;100370.09;;;16.92
72278;BMP280;61204;49.980;8.358;2023-09-19T07:18:34;100373.81;;;16.99
72278;BMP280;61204;49.980;8.358;2023-09-19T07:20:59;100387.34;;;17.08
72278;BMP280;61204;49.980;8.358;2023-09-19T07:23:30;100387.75;;;17.18
72278;BMP280;61204;49.980;8.358;2023-09-19T07:26:03;100395.97;;;16.99
72278;BMP280;61204;49.980;8.358;2023-09-19T07:28:30;100398.84;;;17.18
72278;BMP280;61204;49.980;8.358;2023-09-19T07:31:01;100393.63;;;17.09
72278;BMP280;61204;49.980;8.358;2023-09-19T07:33:35;100404.38;;;17.18
72278;BMP280;61204;49.980;8.358;2023-09-19T07:36:01;100407.31;;;17.22
72278;BMP280;61204;49.980;8.358;2023-09-19T07:38:27;100419.66;;;17.37
72278;BMP280;61204;49.980;8.358;2023-09-19T07:40:59;100433.34;;;17.69
72278;BMP280;61204;49.980;8.358;2023-09-19T07:43:27;100425.53;;;17.45
72278;BMP280;61204;49.980;8.358;2023-09-19T07:45:53;100432.72;;;17.52
72278;BMP280;61204;49.980;8.358;2023-09-19T07:48:19;100437.31;;;17.64
72278;BMP280;61204;49.980;8.358;2023-09-19T07:50:44;100440.41;;;17.54
72278;BMP280;61204;49.980;8.358;2023-09-19T07:53:10;100434.00;;;17.49
72278;BMP280;61204;49.980;8.358;2023-09-19T07:55:39;100443.81;;;17.70
72278;BMP280;61204;49.980;8.358;2023-09-19T07:58:06;100449.75;;;17.63
72278;BMP280;61204;49.980;8.358;2023-09-19T08:00:32;100440.53;;;17.94
72278;BMP280;61204;49.980;8.358;2023-09-19T08:03:00;100460.44;;;17.88
72278;BMP280;61204;49.980;8.358;2023-09-19T08:05:26;100456.59;;;17.97
72278;BMP280;61204;49.980;8.358;2023-09-19T08:07:54;100447.44;;;17.93
72278;BMP280;61204;49.980;8.358;2023-09-19T08:10:21;100463.66;;;18.00
72278;BMP280;61204;49.980;8.358;2023-09-19T08:12:48;100453.72;;;17.75
72278;BMP280;61204;49.980;8.358;2023-09-19T08:15:21;100462.22;;;17.99
72278;BMP280;61204;49.980;8.358;2023-09-19T08:17:49;100470.88;;;17.90
72278;BMP280;61204;49.980;8.358;2023-09-19T08:20:15;100478.09;;;17.79
72278;BMP280;61204;49.980;8.358;2023-09-19T08:22:50;100472.81;;;17.85
72278;BMP280;61204;49.980;8.358;2023-09-19T08:25:23;100473.09;;;17.93
72278;BMP280;61204;49.980;8.358;2023-09-19T08:27:51;100468.69;;;18.06
72278;BMP280;61204;49.980;8.358;2023-09-19T08:30:18;100483.53;;;18.12
72278;BMP280;61204;49.980;8.358;2023-09-19T08:32:49;100461.19;;;18.08
72278;BMP280;61204;49.980;8.358;2023-09-19T08:35:15;100481.19;;;18.25
72278;BMP280;61204;49.980;8.358;2023-09-19T08:37:42;100477.13;;;18.08
72278;BMP280;61204;49.980;8.358;2023-09-19T08:40:10;100476.88;;;18.02
72278;BMP280;61204;49.980;8.358;2023-09-19T08:45:19;100478.53;;;18.29
72278;BMP280;61204;49.980;8.358;2023-09-19T08:50:33;100494.06;;;18.16
72278;BMP280;61204;49.980;8.358;2023-09-19T08:53:11;100491.41;;;18.38
72278;BMP280;61204;49.980;8.358;2023-09-19T08:55:46;100488.38;;;18.12
72278;BMP280;61204;49.980;8.358;2023-09-19T08:58:16;100493.19;;;18.11
72278;BMP280;61204;49.980;8.358;2023-09-19T09:00:48;100497.53;;;18.17
72278;BMP280;61204;49.980;8.358;2023-09-19T09:03:18;100497.25;;;18.48
72278;BMP280;61204;49.980;8.358;2023-09-19T09:05:46;100489.16;;;18.14
72278;BMP280;61204;49.980;8.358;2023-09-19T09:08:15;100504.28;;;18.11
72278;BMP280;61204;49.980;8.358;2023-09-19T09:10:45;100506.09;;;18.23
72278;BMP280;61204;49.980;8.358;2023-09-19T09:13:14;100509.91;;;18.13
72278;BMP280;61204;49.980;8.358;2023-09-19T09:15:41;100511.41;;;18.17
72278;BMP280;61204;49.980;8.358;2023-09-19T09:18:10;100494.94;;;18.40
72278;BMP280;61204;49.980;8.358;2023-09-19T09:20:36;100499.88;;;18.42
72278;BMP280;61204;49.980;8.358;2023-09-19T09:23:06;100498.06;;;18.51
72278;BMP280;61204;49.980;8.358;2023-09-19T09:25:52;100498.56;;;18.85
72278;BMP280;61204;49.980;8.358;2023-09-19T09:28:21;100499.25;;;18.85
72278;BMP280;61204;49.980;8.358;2023-09-19T09:30:53;100505.47;;;18.84
72278;BMP280;61204;49.980;8.358;2023-09-19T09:33:20;100509.88;;;18.91
72278;BMP280;61204;49.980;8.358;2023-09-19T09:36:00;100510.31;;;18.83
72278;BMP280;61204;49.980;8.358;2023-09-19T09:38:47;100509.00;;;19.06
72278;BMP280;61204;49.980;8.358;2023-09-19T09:41:36;100513.06;;;19.68
72278;BMP280;61204;49.980;8.358;2023-09-19T09:44:16;100511.72;;;20.17
72278;BMP280;61204;49.980;8.358;2023-09-19T09:46:45;100508.47;;;19.77
72278;BMP280;61204;49.980;8.358;2023-09-19T09:49:26;100512.84;;;19.84
72278;BMP280;61204;49.980;8.358;2023-09-19T09:52:00;100515.59;;;20.32
72278;BMP280;61204;49.980;8.358;2023-09-19T09:54:59;100507.22;;;19.82
72278;BMP280;61204;49.980;8.358;2023-09-19T09:57:33;100515.72;;;19.43
72278;BMP280;61204;49.980;8.358;2023-09-19T10:00:00;100515.84;;;20.16
72278;BMP280;61204;49.980;8.358;2023-09-19T10:02:39;100519.88;;;20.11
72278;BMP280;61204;49.980;8.358;2023-09-19T10:05:12;100516.16;;;20.03
72278;BMP280;61204;49.980;8.358;2023-09-19T10:07:42;100507.00;;;19.52
72278;BMP280;61204;49.980;8.358;2023-09-19T10:10:15;100504.06;;;19.94
72278;BMP280;61204;49.980;8.358;2023-09-19T10:12:55;100499.09;;;19.66
72278;BMP280;61204;49.980;8.358;2023-09-19T10:15:31;100504.25;;;19.30
72278;BMP280;61204;49.980;8.358;2023-09-19T10:18:00;100507.69;;;19.98
72278;BMP280;61204;49.980;8.358;2023-09-19T10:20:28;100507.72;;;20.24
72278;BMP280;61204;49.980;8.358;2023-09-19T10:23:03;100505.66;;;20.25
72278;BMP280;61204;49.980;8.358;2023-09-19T10:25:40;100516.19;;;20.54
72278;BMP280;61204;49.980;8.358;2023-09-19T10:28:11;100506.72;;;20.38
72278;BMP280;61204;49.980;8.358;2023-09-19T10:30:46;100515.88;;;20.68
72278;BMP280;61204;49.980;8.358;2023-09-19T10:33:17;100503.78;;;21.13
72278;BMP280;61204;49.980;8.358;2023-09-19T10:35:47;100522.16;;;21.24
72278;BMP280;61204;49.980;8.358;2023-09-19T10:38:22;100518.59;;;20.66
72278;BMP280;61204;49.980;8.358;2023-09-19T10:40:52;100514.50;;;20.97
72278;BMP280;61204;49.980;8.358;2023-09-19T10:43:30;100519.28;;;20.65
72278;BMP280;61204;49.980;8.358;2023-09-19T10:46:01;100510.22;;;20.40
72278;BMP280;61204;49.980;8.358;2023-09-19T10:48:36;100501.38;;;20.74
72278;BMP280;61204;49.980;8.358;2023-09-19T10:56:38;100504.97;;;20.78
72278;BMP280;61204;49.980;8.358;2023-09-19T10:59:19;100503.59;;;20.77
72278;BMP280;61204;49.980;8.358;2023-09-19T11:01:49;100495.72;;;21.28
72278;BMP280;61204;49.980;8.358;2023-09-19T11:04:31;100501.00;;;20.85
72278;BMP280;61204;49.980;8.358;2023-09-19T11:07:11;100493.44;;;21.50
72278;BMP280;61204;49.980;8.358;2023-09-19T11:14:56;100482.13;;;21.74
72278;BMP280;61204;49.980;8.358;2023-09-19T11:17:42;100476.22;;;21.28
72278;BMP280;61204;49.980;8.358;2023-09-19T11:30:38;100462.88;;;21.56
72278;BMP280;61204;49.980;8.358;2023-09-19T11:33:30;100452.50;;;21.93
72278;BMP280;61204;49.980;8.358;2023-09-19T11:36:05;100450.44;;;21.61
72278;BMP280;61204;49.980;8.358;2023-09-19T11:43:51;100446.66;;;21.80
72278;BMP280;61204;49.980;8.358;2023-09-19T11:46:21;100452.06;;;21.72
72278;BMP280;61204;49.980;8.358;2023-09-19T11:48:50;100444.19;;;21.97
72278;BMP280;61204;49.980;8.358;2023-09-19T11:53:54;100442.88;;;22.82
72278;BMP280;61204;49.980;8.358;2023-09-19T11:56:25;100448.97;;;23.14
72278;BMP280;61204;49.980;8.358;2023-09-19T11:58:57;100443.16;;;22.54
72278;BMP280;61204;49.980;8.358;2023-09-19T12:01:32;100460.84;;;21.93
72278;BMP280;61204;49.980;8.358;2023-09-19T12:04:01;100456.72;;;21.96
72278;BMP280;61204;49.980;8.358;2023-09-19T12:06:30;100449.72;;;21.95
72278;BMP280;61204;49.980;8.358;2023-09-19T12:08:57;100444.56;;;22.15
72278;BMP280;61204;49.980;8.358;2023-09-19T12:11:30;100445.28;;;22.58
72278;BMP280;61204;49.980;8.358;2023-09-19T12:14:01;100430.91;;;22.33
72278;BMP280;61204;49.980;8.358;2023-09-19T12:16:27;100439.00;;;23.03
72278;BMP280;61204;49.980;8.358;2023-09-19T12:18:57;100437.00;;;22.64
72278;BMP280;61204;49.980;8.358;2023-09-19T12:21:29;100438.44;;;22.65
72278;BMP280;61204;49.980;8.358;2023-09-19T12:24:12;100422.31;;;22.21
72278;BMP280;61204;49.980;8.358;2023-09-19T12:26:44;100434.16;;;22.60
72278;BMP280;61204;49.980;8.358;2023-09-19T12:29:21;100438.28;;;23.01
72278;BMP280;61204;49.980;8.358;2023-09-19T12:31:57;100443.78;;;22.10
72278;BMP280;61204;49.980;8.358;2023-09-19T12:39:46;100430.53;;;22.13
72278;BMP280;61204;49.980;8.358;2023-09-19T12:42:23;100437.22;;;21.98
72278;BMP280;61204;49.980;8.358;2023-09-19T12:44:57;100413.22;;;22.20
72278;BMP280;61204;49.980;8.358;2023-09-19T12:47:27;100425.03;;;22.59
72278;BMP280;61204;49.980;8.358;2023-09-19T12:52:49;100409.47;;;22.46
72278;BMP280;61204;49.980;8.358;2023-09-19T12:55:30;100407.56;;;22.57
72278;BMP280;61204;49.980;8.358;2023-09-19T12:58:14;100401.41;;;22.64
72278;BMP280;61204;49.980;8.358;2023-09-19T13:00:45;100408.97;;;22.58
72278;BMP280;61204;49.980;8.358;2023-09-19T13:06:02;100412.41;;;22.14
72278;BMP280;61204;49.980;8.358;2023-09-19T13:08:35;100410.34;;;22.16
72278;BMP280;61204;49.980;8.358;2023-09-19T13:11:14;100408.69;;;22.01
72278;BMP280;61204;49.980;8.358;2023-09-19T13:16:55;100415.69;;;22.42
72278;BMP280;61204;49.980;8.358;2023-09-19T13:19:43;100416.72;;;22.61
72278;BMP280;61204;49.980;8.358;2023-09-19T13:22:44;100394.97;;;22.56
72278;BMP280;61204;49.980;8.358;2023-09-19T13:25:18;100406.41;;;23.22
72278;BMP280;61204;49.980;8.358;2023-09-19T13:27:49;100403.56;;;23.18
72278;BMP280;61204;49.980;8.358;2023-09-19T13:30:23;100405.28;;;22.93
72278;BMP280;61204;49.980;8.358;2023-09-19T13:33:03;100389.31;;;23.00
72278;BMP280;61204;49.980;8.358;2023-09-19T13:35:38;100394.75;;;22.43
72278;BMP280;61204;49.980;8.358;2023-09-19T13:38:06;100400.59;;;22.58
72278;BMP280;61204;49.980;8.358;2023-09-19T13:40:34;100406.25;;;22.22
72278;BMP280;61204;49.980;8.358;2023-09-19T13:43:03;100371.44;;;21.86
72278;BMP280;61204;49.980;8.358;2023-09-19T13:45:29;100403.06;;;21.63
72278;BMP280;61204;49.980;8.358;2023-09-19T13:47:57;100398.81;;;21.60
72278;BMP280;61204;49.980;8.358;2023-09-19T13:50:24;100401.13;;;21.70
72278;BMP280;61204;49.980;8.358;2023-09-19T13:52:51;100393.28;;;21.62
72278;BMP280;61204;49.980;8.358;2023-09-19T13:55:18;100392.78;;;21.38
72278;BMP280;61204;49.980;8.358;2023-09-19T13:57:49;100390.19;;;21.48
72278;BMP280;61204;49.980;8.358;2023-09-19T14:00:20;100395.31;;;21.58
72278;BMP280;61204;49.980;8.358;2023-09-19T14:02:51;100384.13;;;21.94
72278;BMP280;61204;49.980;8.358;2023-09-19T14:05:17;100392.06;;;22.09
72278;BMP280;61204;49.980;8.358;2023-09-19T14:07:44;100385.59;;;21.99
72278;BMP280;61204;49.980;8.358;2023-09-19T14:10:12;100379.78;;;22.25
72278;BMP280;61204;49.980;8.358;2023-09-19T14:12:38;100379.81;;;21.86
72278;BMP280;61204;49.980;8.358;2023-09-19T14:15:08;100376.38;;;21.90
72278;BMP280;61204;49.980;8.358;2023-09-19T14:17:35;100381.47;;;22.02
72278;BMP280;61204;49.980;8.358;2023-09-19T14:20:01;100371.16;;;21.72
72278;BMP280;61204;49.980;8.358;2023-09-19T14:22:27;100372.59;;;22.13
72278;BMP280;61204;49.980;8.358;2023-09-19T14:24:53;100379.97;;;22.35
72278;BMP280;61204;49.980;8.358;2023-09-19T14:27:19;100376.53;;;22.40
72278;BMP280;61204;49.980;8.358;2023-09-19T14:29:44;100364.66;;;22.38
72278;BMP280;61204;49.980;8.358;2023-09-19T14:32:10;100359.13;;;22.44
72278;BMP280;61204;49.980;8.358;2023-09-19T14:34:36;100371.56;;;21.95
72278;BMP280;61204;49.980;8.358;2023-09-19T14:37:07;100363.50;;;22.55
72278;BMP280;61204;49.980;8.358;2023-09-19T14:39:33;100356.09;;;22.72
72278;BMP280;61204;49.980;8.358;2023-09-19T14:41:59;100344.66;;;22.54
72278;BMP280;61204;49.980;8.358;2023-09-19T14:44:25;100350.19;;;22.51
72278;BMP280;61204;49.980;8.358;2023-09-19T14:46:53;100341.03;;;22.45
72278;BMP280;61204;49.980;8.358;2023-09-19T14:49:20;100338.88;;;22.90
72278;BMP280;61204;49.980;8.358;2023-09-19T14:51:45;100355.56;;;22.85
72278;BMP280;61204;49.980;8.358;2023-09-19T14:54:15;100341.59;;;23.40
72278;BMP280;61204;49.980;8.358;2023-09-19T14:56:42;100335.91;;;23.32
72278;BMP280;61204;49.980;8.358;2023-09-19T14:59:08;100316.31;;;22.77
72278;BMP280;61204;49.980;8.358;2023-09-19T15:01:36;100326.81;;;22.77
72278;BMP280;61204;49.980;8.358;2023-09-19T15:04:03;100324.97;;;22.45
72278;BMP280;61204;49.980;8.358;2023-09-19T15:06:29;100324.16;;;22.89
72278;BMP280;61204;49.980;8.358;2023-09-19T15:08:54;100340.88;;;23.41
72278;BMP280;61204;49.980;8.358;2023-09-19T15:11:20;100330.25;;;22.71
72278;BMP280;61204;49.980;8.358;2023-09-19T15:13:47;100333.88;;;22.34